Time;durP1;ratioP1;P1;durP2;ratioP2;P2;SDS_P1;SDS_P2;PMS_P1;PMS_P2;Temp;Humidity;BMP_temperature;BMP_pressure;BME280_temperature;BME280_humidity;BME280_pressure;Samples;Min_cycle;Max_cycle;Signal;HPM_P1;HPM_P2
2021/07/24 00:01:03;;;;;;;18.30;11.10;;;;;;;20.15;60.47;95899.19;5113582;28;20047;-72
2021/07/24 00:03:31;;;;;;;14.80;11.15;;;;;;;20.13;60.69;95890.50;5111844;28;20047;-72
2021/07/24 00:06:01;;;;;;;17.35;11.60;;;;;;;20.10;60.55;95882.97;5114657;28;20055;-73
2021/07/24 00:08:28;;;;;;;16.25;11.38;;;;;;;20.03;60.60;95879.03;5108614;28;20047;-73
2021/07/24 00:10:55;;;;;;;20.05;11.40;;;;;;;20.00;60.94;95874.28;5114658;28;20036;-73
2021/07/24 00:13:21;;;;;;;19.00;11.98;;;;;;;19.97;61.24;95866.78;5114216;28;20075;-73
2021/07/24 00:15:48;;;;;;;19.45;12.23;;;;;;;19.94;61.34;95864.81;5114837;28;20410;-72
2021/07/24 00:18:14;;;;;;;19.27;11.95;;;;;;;19.91;61.48;95870.31;5114264;28;20043;-73
2021/07/24 00:20:42;;;;;;;20.23;12.82;;;;;;;19.90;61.79;95880.56;5114438;28;20039;-72
2021/07/24 00:23:11;;;;;;;21.05;13.02;;;;;;;19.89;61.95;95879.00;5113866;28;20051;-72
2021/07/24 00:25:37;;;;;;;21.25;12.73;;;;;;;19.90;62.04;95869.53;5114515;28;20051;-73
2021/07/24 00:28:04;;;;;;;21.52;12.20;;;;;;;19.88;61.79;95871.88;5113869;28;20505;-73
2021/07/24 00:30:31;;;;;;;19.42;12.75;;;;;;;19.85;62.10;95864.38;5114539;28;20053;-73
2021/07/24 00:32:57;;;;;;;24.13;13.68;;;;;;;19.82;62.59;95870.66;5114309;28;20047;-72
2021/07/24 00:35:24;;;;;;;23.80;14.18;;;;;;;19.80;62.00;95871.06;5113676;28;20039;-73
2021/07/24 00:37:52;;;;;;;24.35;13.88;;;;;;;19.79;62.54;95858.44;5109131;28;20051;-73
2021/07/24 00:40:22;;;;;;;23.67;14.18;;;;;;;19.78;62.41;95861.56;5113617;28;20600;-73
2021/07/24 00:42:51;;;;;;;23.50;14.30;;;;;;;19.78;62.35;95856.03;5114427;28;20044;-72
2021/07/24 00:45:19;;;;;;;39.50;14.32;;;;;;;19.75;61.75;95857.63;5113740;28;20039;-73
2021/07/24 00:47:49;;;;;;;23.50;13.45;;;;;;;19.74;61.62;95849.75;5113960;28;20055;-72
2021/07/24 00:50:16;;;;;;;22.33;12.88;;;;;;;19.74;61.75;95844.22;5113611;28;20047;-72
2021/07/24 00:52:43;;;;;;;21.55;12.88;;;;;;;19.73;61.45;95837.09;5112715;28;20126;-72
2021/07/24 00:55:14;;;;;;;19.45;12.48;;;;;;;19.69;61.23;95833.53;5113316;28;20052;-72
2021/07/24 00:57:41;;;;;;;18.90;12.45;;;;;;;19.66;60.95;95837.84;5113906;28;20055;-72
2021/07/24 01:00:09;;;;;;;23.10;12.77;;;;;;;19.62;60.52;95827.97;5113488;28;20151;-73
2021/07/24 01:02:35;;;;;;;20.42;12.20;;;;;;;19.59;60.42;95831.50;5113798;28;20046;-73
2021/07/24 01:05:03;;;;;;;19.98;11.73;;;;;;;19.55;60.89;95821.22;5113240;28;20048;-72
2021/07/24 01:07:33;;;;;;;16.65;11.82;;;;;;;19.54;60.57;95825.16;5113084;28;20046;-72
2021/07/24 01:10:00;;;;;;;20.05;11.65;;;;;;;19.52;60.74;95822.00;5113991;28;20046;-73
2021/07/24 01:12:28;;;;;;;18.98;11.52;;;;;;;19.53;60.96;95822.81;5113012;28;20051;-72
2021/07/24 01:14:55;;;;;;;18.73;11.73;;;;;;;19.50;60.66;95818.84;5113492;28;20392;-73
2021/07/24 01:17:21;;;;;;;18.70;12.02;;;;;;;19.50;60.71;95823.56;5112870;28;20044;-73
2021/07/24 01:19:48;;;;;;;20.80;12.02;;;;;;;19.47;60.24;95819.63;5113459;28;20040;-73
2021/07/24 01:22:15;;;;;;;20.67;11.80;;;;;;;19.42;60.15;95814.47;5112833;28;20044;-72
2021/07/24 01:24:42;;;;;;;19.10;12.43;;;;;;;19.39;60.47;95820.75;5113394;28;20051;-72
2021/07/24 01:27:09;;;;;;;18.95;11.70;;;;;;;19.33;60.73;95811.28;5112786;28;20049;-72
2021/07/24 01:29:36;;;;;;;21.30;12.05;;;;;;;19.31;60.72;95810.84;5113368;28;20043;-73
2021/07/24 01:32:03;;;;;;;19.42;12.05;;;;;;;19.27;60.97;95815.59;5112670;28;20052;-72
2021/07/24 01:34:30;;;;;;;19.70;11.60;;;;;;;19.25;61.33;95807.69;5113220;28;20048;-72
2021/07/24 01:36:56;;;;;;;16.92;11.52;;;;;;;19.25;61.60;95804.91;5109025;28;20044;-73
2021/07/24 01:39:25;;;;;;;21.48;12.75;;;;;;;19.25;62.03;95813.19;5111683;28;20444;-72
2021/07/24 01:41:54;;;;;;;17.60;11.13;;;;;;;19.24;62.03;95816.34;5113114;28;20032;-73
2021/07/24 01:44:20;;;;;;;19.30;11.15;;;;;;;19.25;61.67;95815.19;5112322;28;20068;-72
2021/07/24 01:46:46;;;;;;;18.08;11.25;;;;;;;19.25;62.08;95815.19;5112870;28;20048;-72
2021/07/24 01:49:19;;;;;;;19.77;11.32;;;;;;;19.24;62.32;95810.84;5112240;28;20055;-73
2021/07/24 01:54:37;;;;;;;18.27;11.52;;;;;;;19.15;62.31;95802.13;5112672;28;19926;-73
2021/07/24 01:57:09;;;;;;;20.15;11.15;;;;;;;19.10;62.61;95803.25;5112497;28;20047;-73
2021/07/24 01:59:41;;;;;;;18.40;12.18;;;;;;;19.09;63.34;95809.19;5112711;28;20067;-73
2021/07/24 02:02:09;;;;;;;19.20;12.23;;;;;;;19.09;63.41;95809.19;5112124;28;20047;-73
2021/07/24 02:04:40;;;;;;;19.30;11.85;;;;;;;19.08;63.41;95802.88;5112367;28;20052;-72
2021/07/24 02:07:10;;;;;;;18.92;11.98;;;;;;;19.09;63.02;95803.66;5111366;28;20066;-72
2021/07/24 02:09:38;;;;;;;19.70;12.40;;;;;;;19.06;62.76;95793.41;5112741;28;20040;-72
2021/07/24 02:12:05;;;;;;;18.40;11.48;;;;;;;19.04;62.90;95797.31;5111947;28;20051;-72
2021/07/24 02:14:34;;;;;;;18.67;11.77;;;;;;;19.03;63.17;95801.28;5112489;28;20035;-73
2021/07/24 02:17:01;;;;;;;17.02;11.35;;;;;;;18.99;62.81;95794.94;5112321;28;20052;-73
2021/07/24 02:19:29;;;;;;;19.85;11.68;;;;;;;18.91;62.62;95793.31;5112120;28;20032;-72
2021/07/24 02:21:55;;;;;;;19.55;11.90;;;;;;;18.88;63.00;95799.59;5112141;28;20051;-72
2021/07/24 02:24:22;;;;;;;18.48;11.55;;;;;;;18.85;63.07;95797.63;5111825;28;20051;-72
2021/07/24 02:26:50;;;;;;;19.63;11.70;;;;;;;18.85;63.36;95797.63;5112177;28;20404;-72
2021/07/24 02:29:16;;;;;;;19.33;12.52;;;;;;;18.83;63.61;95797.22;5111589;28;20047;-73
2021/07/24 02:31:43;;;;;;;18.75;12.07;;;;;;;18.81;63.60;95796.81;5112215;28;20043;-72
2021/07/24 02:34:09;;;;;;;18.45;11.73;;;;;;;18.79;63.88;95807.41;5111440;28;20050;-72
2021/07/24 02:36:36;;;;;;;22.00;12.65;;;;;;;18.78;63.51;95817.66;5111314;28;20055;-73
2021/07/24 02:39:03;;;;;;;20.63;12.13;;;;;;;18.78;63.98;95814.13;5107692;28;20050;-72
2021/07/24 02:41:29;;;;;;;23.92;12.23;;;;;;;18.77;63.83;95820.81;5111940;28;20039;-73
2021/07/24 02:43:57;;;;;;;17.95;11.80;;;;;;;18.77;63.13;95826.34;5112068;28;20450;-73
2021/07/24 02:46:23;;;;;;;21.05;12.73;;;;;;;18.76;63.93;95830.28;5111264;28;20039;-73
2021/07/24 02:48:50;;;;;;;19.05;11.60;;;;;;;18.74;64.07;95832.59;5111773;28;20432;-73
2021/07/24 02:51:17;;;;;;;21.08;12.30;;;;;;;18.73;64.00;95836.53;5111448;28;20063;-72
2021/07/24 02:53:43;;;;;;;17.35;11.15;;;;;;;18.71;63.31;95833.38;5111873;28;20134;-73
2021/07/24 02:56:10;;;;;;;19.20;11.25;;;;;;;18.69;63.05;95842.06;5111417;28;20097;-72
2021/07/24 02:58:36;;;;;;;16.73;10.98;;;;;;;18.68;63.40;95842.41;5111567;28;20044;-73
2021/07/24 03:01:08;;;;;;;16.70;11.70;;;;;;;18.66;64.03;95836.47;5111372;28;20070;-73
2021/07/24 03:03:34;;;;;;;19.52;11.93;;;;;;;18.58;64.40;95840.34;5111744;28;20074;-72
2021/07/24 03:06:01;;;;;;;17.55;11.43;;;;;;;18.51;64.73;95841.88;5111592;28;20051;-73
2021/07/24 03:08:27;;;;;;;18.02;11.95;;;;;;;18.51;64.36;95847.38;5106031;28;20054;-73
2021/07/24 03:10:54;;;;;;;19.27;11.93;;;;;;;18.45;64.40;95843.41;5111867;28;20043;-73
2021/07/24 03:13:20;;;;;;;21.02;13.05;;;;;;;18.41;65.18;95841.78;5111106;28;20494;-72
2021/07/24 03:15:47;;;;;;;16.60;11.52;;;;;;;18.37;64.19;95833.47;5112036;28;20070;-72
2021/07/24 03:18:14;;;;;;;19.67;12.35;;;;;;;18.35;64.55;95843.31;5115313;28;20525;-72
2021/07/24 03:20:41;;;;;;;22.40;12.50;;;;;;;18.30;64.80;95836.19;5115591;28;20507;-72
2021/07/24 03:23:07;;;;;;;21.08;12.57;;;;;;;18.25;65.41;95839.28;5115379;28;20050;-73
2021/07/24 03:25:34;;;;;;;18.40;11.75;;;;;;;18.18;66.09;95848.28;5115829;28;20462;-72
2021/07/24 03:28:00;;;;;;;19.23;13.25;;;;;;;18.12;65.54;95857.28;5115376;28;20070;-73
2021/07/24 03:30:27;;;;;;;18.60;12.05;;;;;;;18.08;65.84;95854.47;5115420;28;20034;-72
2021/07/24 03:32:53;;;;;;;19.98;12.88;;;;;;;18.06;65.93;95856.00;5115746;28;20044;-73
2021/07/24 03:35:21;;;;;;;19.67;12.48;;;;;;;18.05;66.62;95852.47;5115028;28;20039;-73
2021/07/24 03:37:47;;;;;;;18.63;12.30;;;;;;;18.02;66.75;95868.97;5110243;28;20031;-73
2021/07/24 03:40:14;;;;;;;20.65;12.80;;;;;;;17.99;66.43;95854.78;5115103;28;20048;-73
2021/07/24 03:42:41;;;;;;;19.23;12.63;;;;;;;18.00;67.02;95861.88;5115155;28;20047;-73
2021/07/24 03:45:09;;;;;;;18.73;12.40;;;;;;;18.02;66.98;95863.47;5114895;28;20048;-72
2021/07/24 03:47:35;;;;;;;20.95;12.75;;;;;;;17.99;67.10;95852.03;5115491;28;20383;-73
2021/07/24 03:50:01;;;;;;;21.25;12.80;;;;;;;17.97;67.32;95848.88;5115157;28;20048;-73
2021/07/24 03:52:29;;;;;;;22.33;12.25;;;;;;;18.00;66.57;95850.06;5115077;28;20039;-73
2021/07/24 03:54:56;;;;;;;21.48;12.85;;;;;;;18.00;66.73;95852.81;5115071;28;20051;-73
2021/07/24 03:57:22;;;;;;;21.80;12.15;;;;;;;17.94;67.32;95846.84;5114438;28;20044;-72
2021/07/24 03:59:48;;;;;;;19.38;12.55;;;;;;;17.95;67.88;95853.16;5115028;28;20406;-72
2021/07/24 04:02:18;;;;;;;19.55;12.00;;;;;;;17.97;67.31;95857.13;5114495;28;20044;-73
2021/07/24 04:04:47;;;;;;;19.42;11.73;;;;;;;17.97;66.61;95857.13;5114820;28;20047;-72
2021/07/24 04:07:14;;;;;;;19.15;12.85;;;;;;;17.96;66.86;95850.03;5112559;28;20040;-72
2021/07/24 04:09:42;;;;;;;17.77;11.82;;;;;;;17.98;67.78;95842.19;5114768;28;20044;-72
2021/07/24 04:12:10;;;;;;;19.75;12.38;;;;;;;17.96;69.20;95835.47;5114183;28;20071;-73
2021/07/24 04:14:38;;;;;;;20.27;12.13;;;;;;;17.96;68.71;95836.28;5114645;28;20127;-72
2021/07/24 04:17:05;;;;;;;17.80;12.38;;;;;;;17.99;67.48;95838.25;5114478;28;20410;-72
2021/07/24 04:19:32;;;;;;;19.75;12.13;;;;;;;18.00;67.73;95839.81;5114732;28;20043;-73
2021/07/24 04:21:58;;;;;;;25.65;11.70;;;;;;;18.02;67.56;95830.41;5114582;28;20494;-73
2021/07/24 04:24:24;;;;;;;18.75;12.40;;;;;;;18.06;67.74;95825.72;5114155;28;20066;-72
2021/07/24 04:26:52;;;;;;;19.17;12.48;;;;;;;18.07;67.96;95827.31;5113910;28;20052;-73
2021/07/24 04:29:19;;;;;;;19.55;12.35;;;;;;;18.09;68.04;95830.47;5114067;28;20040;-73
2021/07/24 04:31:45;;;;;;;17.27;12.10;;;;;;;18.13;66.93;95825.78;5114574;28;20563;-73
2021/07/24 04:34:12;;;;;;;20.25;12.25;;;;;;;18.15;67.79;95834.47;5113886;28;20035;-72
2021/07/24 04:36:38;;;;;;;18.52;11.45;;;;;;;18.16;67.61;95816.75;5114343;28;20039;-72
2021/07/24 04:39:05;;;;;;;20.15;11.85;;;;;;;18.20;67.76;95814.81;5113861;28;20066;-72
2021/07/24 04:41:31;;;;;;;18.10;11.57;;;;;;;18.22;67.37;95807.00;5114018;28;20047;-72
2021/07/24 04:43:59;;;;;;;19.42;12.13;;;;;;;18.26;66.67;95805.03;5114376;28;20048;-73
2021/07/24 04:46:25;;;;;;;20.58;12.60;;;;;;;18.27;66.68;95809.41;5113658;28;20121;-72
2021/07/24 04:48:52;;;;;;;19.23;11.63;;;;;;;18.30;66.59;95811.38;5114107;28;20039;-72
2021/07/24 04:51:18;;;;;;;17.10;11.57;;;;;;;18.30;66.08;95819.63;5113738;28;20047;-73
2021/07/24 04:53:47;;;;;;;20.27;12.50;;;;;;;18.38;65.84;95807.50;5113891;28;20051;-73
2021/07/24 04:56:14;;;;;;;21.45;12.60;;;;;;;18.39;65.58;95811.06;5113445;28;20251;-72
2021/07/24 04:58:40;;;;;;;15.55;11.00;;;;;;;18.40;65.32;95807.13;5113988;28;20046;-72
2021/07/24 05:01:08;;;;;;;20.02;12.23;;;;;;;18.36;64.43;95801.56;5113255;28;20409;-72
2021/07/24 05:03:35;;;;;;;20.38;12.40;;;;;;;18.40;65.59;95802.41;5113772;28;20039;-72
2021/07/24 05:06:02;;;;;;;20.15;12.70;;;;;;;18.44;66.50;95797.72;5097085;28;20048;-74
2021/07/24 05:08:29;;;;;;;18.35;11.98;;;;;;;18.43;65.74;95796.13;5105398;28;20056;-75
2021/07/24 05:10:55;;;;;;;20.63;11.88;;;;;;;18.45;65.61;95795.75;5110343;28;20035;-76
2021/07/24 05:13:22;;;;;;;21.50;12.30;;;;;;;18.52;66.31;95807.59;5109733;28;20055;-75
2021/07/24 05:15:48;;;;;;;21.10;13.82;;;;;;;18.48;64.99;95804.06;5110239;28;20051;-75
2021/07/24 05:18:16;;;;;;;22.85;12.73;;;;;;;18.46;65.44;95789.84;5109741;28;20075;-75
2021/07/24 05:20:43;;;;;;;25.98;14.65;;;;;;;18.47;65.74;95791.41;5110255;28;20050;-75
2021/07/24 05:23:10;;;;;;;19.13;12.57;;;;;;;18.52;66.10;95793.81;5109523;28;20054;-76
2021/07/24 05:25:37;;;;;;;21.55;13.27;;;;;;;18.57;65.88;95791.88;5110153;28;20096;-75
2021/07/24 05:28:04;;;;;;;22.90;12.82;;;;;;;18.58;65.47;95796.22;5109538;28;20055;-74
2021/07/24 05:30:31;;;;;;;20.05;12.50;;;;;;;18.60;65.84;95788.38;5110457;28;20383;-75
2021/07/24 05:32:57;;;;;;;25.58;13.57;;;;;;;18.67;65.93;95791.16;5110119;28;20047;-75
2021/07/24 05:35:25;;;;;;;22.83;13.65;;;;;;;18.70;65.84;95788.47;5109570;28;20051;-75
2021/07/24 05:37:51;;;;;;;20.17;12.35;;;;;;;18.76;65.95;95788.91;5109639;28;20044;-74
2021/07/24 05:40:18;;;;;;;22.83;13.07;;;;;;;18.78;64.61;95795.59;5108519;28;20494;-75
2021/07/24 05:42:44;;;;;;;28.58;15.40;;;;;;;18.82;64.94;95790.13;5108614;28;20055;-75
2021/07/24 05:45:12;;;;;;;23.77;14.80;;;;;;;18.85;65.24;95800.38;5108945;28;20044;-76
2021/07/24 05:47:38;;;;;;;27.30;17.15;;;;;;;18.87;64.67;95803.53;5096720;28;20044;-75
2021/07/24 05:50:05;;;;;;;23.73;14.95;;;;;;;18.93;64.61;95802.00;5089004;28;20457;-74
2021/07/24 05:52:33;;;;;;;27.77;13.68;;;;;;;18.95;64.66;95799.66;5089202;28;20059;-75
2021/07/24 05:54:59;;;;;;;19.90;12.45;;;;;;;19.02;65.01;95796.94;5089016;28;20051;-75
2021/07/24 05:57:26;;;;;;;24.27;13.20;;;;;;;19.08;64.79;95791.03;5088432;28;20051;-76
2021/07/24 05:59:52;;;;;;;21.17;13.38;;;;;;;19.13;64.34;95782.41;5089065;28;20055;-74
2021/07/24 06:02:19;;;;;;;23.48;13.13;;;;;;;19.19;64.34;95786.38;5088368;28;20464;-74
2021/07/24 06:04:47;;;;;;;22.58;13.32;;;;;;;19.21;64.40;95784.00;5089188;28;20052;-75
2021/07/24 06:07:13;;;;;;;21.88;13.38;;;;;;;19.26;64.33;95778.09;5092871;28;20079;-75
2021/07/24 06:09:41;;;;;;;19.83;12.45;;;;;;;19.36;64.52;95777.34;5109415;28;20414;-75
2021/07/24 06:12:09;;;;;;;22.05;12.82;;;;;;;19.41;63.89;95771.47;5108742;28;20047;-75
2021/07/24 06:14:35;;;;;;;20.90;13.63;;;;;;;19.45;63.61;95765.97;5109501;28;20082;-75
2021/07/24 06:17:03;;;;;;;24.73;13.90;;;;;;;19.48;63.39;95777.03;5108313;28;20399;-75
2021/07/24 06:19:29;;;;;;;19.30;12.38;;;;;;;19.54;63.79;95780.19;5109135;28;20058;-75
2021/07/24 06:21:56;;;;;;;22.52;12.48;;;;;;;19.65;62.58;95774.72;5108779;28;20048;-75
2021/07/24 06:24:22;;;;;;;24.30;13.77;;;;;;;19.69;62.46;95770.00;5108424;28;20070;-75
2021/07/24 06:26:50;;;;;;;22.17;13.73;;;;;;;19.74;63.12;95766.88;5108278;28;20054;-74
2021/07/24 06:29:17;;;;;;;23.63;12.98;;;;;;;19.80;62.95;95765.28;5108298;28;20058;-75
2021/07/24 06:31:43;;;;;;;20.85;12.90;;;;;;;19.95;64.83;95766.91;5108872;28;20050;-75
2021/07/24 06:34:10;;;;;;;21.73;12.52;;;;;;;20.10;63.46;95772.41;5108124;28;20052;-75
2021/07/24 06:36:37;;;;;;;16.00;11.57;;;;;;;20.25;63.77;95768.47;5108811;28;20498;-75
2021/07/24 06:39:04;;;;;;;22.95;13.57;;;;;;;20.38;62.97;95766.13;5107986;28;20039;-74
2021/07/24 06:41:33;;;;;;;17.40;11.10;;;;;;;20.52;63.04;95778.00;5108900;28;20043;-76
2021/07/24 06:44:02;;;;;;;19.10;12.15;;;;;;;20.63;62.02;95783.53;5108611;28;20104;-75
2021/07/24 06:46:28;;;;;;;18.88;11.18;;;;;;;20.77;61.38;95799.28;5108252;28;20049;-75
2021/07/24 06:48:55;;;;;;;17.00;12.77;;;;;;;20.91;61.33;95806.78;5108447;28;20040;-75
2021/07/24 06:51:21;;;;;;;15.75;11.75;;;;;;;21.02;59.47;95802.81;5108102;28;20048;-76
2021/07/24 06:53:48;;;;;;;17.20;11.60;;;;;;;21.16;60.23;95803.97;5108527;28;20047;-75
2021/07/24 06:56:14;;;;;;;16.48;11.85;;;;;;;21.21;58.15;95792.50;5107831;28;20051;-76
2021/07/24 06:58:40;;;;;;;15.40;11.23;;;;;;;21.21;58.68;95789.72;5108982;28;20051;-74
2021/07/24 07:01:08;;;;;;;16.48;11.38;;;;;;;21.26;60.25;95794.84;5108050;28;20058;-76
2021/07/24 07:03:36;;;;;;;17.63;11.27;;;;;;;21.26;60.92;95792.88;5108852;28;20051;-75
2021/07/24 07:06:06;;;;;;;15.85;11.23;;;;;;;21.30;60.85;95798.44;5107604;28;20391;-75
2021/07/24 07:08:33;;;;;;;16.90;11.52;;;;;;;21.38;59.74;95805.50;5107993;28;20074;-76
2021/07/24 07:11:03;;;;;;;18.85;12.23;;;;;;;21.49;60.32;95811.78;5108382;28;20047;-75
2021/07/24 07:13:29;;;;;;;18.63;11.32;;;;;;;21.57;57.82;95829.19;5107719;28;20047;-76
2021/07/24 07:15:56;;;;;;;16.38;11.60;;;;;;;21.71;58.54;95844.94;5107872;28;20064;-76
2021/07/24 07:18:24;;;;;;;18.08;10.88;;;;;;;21.77;57.86;95854.41;5108116;28;20051;-75
2021/07/24 07:20:51;;;;;;;15.85;11.13;;;;;;;21.86;58.86;95843.69;5108020;28;20757;-76
2021/07/24 07:23:19;;;;;;;19.20;11.10;;;;;;;21.91;59.26;95837.72;5107729;28;20051;-76
2021/07/24 07:25:45;;;;;;;17.95;12.02;;;;;;;21.99;59.38;95825.41;5108258;28;20055;-75
2021/07/24 07:28:12;;;;;;;16.05;10.80;;;;;;;22.12;59.31;95834.84;5105223;28;20432;-75
2021/07/24 07:30:38;;;;;;;20.73;11.38;;;;;;;22.23;58.05;95850.63;5108222;28;20039;-75
2021/07/24 07:33:04;;;;;;;19.25;12.13;;;;;;;22.34;57.88;95854.94;5107228;28;20055;-75
2021/07/24 07:35:32;;;;;;;20.27;11.82;;;;;;;22.45;57.86;95859.59;5106611;28;20055;-76
2021/07/24 07:37:59;;;;;;;16.73;11.43;;;;;;;22.52;57.63;95851.22;5107820;28;20055;-76
2021/07/24 07:40:26;;;;;;;21.45;11.05;;;;;;;22.62;55.84;95856.69;5107408;28;20043;-75
2021/07/24 07:42:53;;;;;;;19.30;12.50;;;;;;;22.76;57.06;95863.31;5107537;28;20049;-75
2021/07/24 07:45:19;;;;;;;16.75;11.48;;;;;;;22.84;54.27;95864.84;5107074;28;20059;-75
2021/07/24 07:47:46;;;;;;;16.05;11.57;;;;;;;22.95;56.06;95854.47;5107776;28;20051;-75
2021/07/24 07:50:12;;;;;;;16.48;10.25;;;;;;;23.07;55.91;95873.38;5107473;28;20043;-74
2021/07/24 07:52:40;;;;;;;17.92;11.57;;;;;;;23.17;54.62;95875.28;5107854;28;20055;-75
2021/07/24 07:55:07;;;;;;;16.50;11.18;;;;;;;23.26;55.33;95868.47;5107400;28;20050;-76
2021/07/24 07:57:34;;;;;;;20.13;11.73;;;;;;;23.38;56.17;95865.16;5107265;28;20051;-75
2021/07/24 08:00:00;;;;;;;20.05;11.75;;;;;;;23.53;53.45;95883.25;5107900;28;20047;-74
2021/07/24 08:02:27;;;;;;;13.98;10.60;;;;;;;23.72;52.95;95889.44;5108545;28;20051;-75
2021/07/24 08:04:53;;;;;;;16.27;10.68;;;;;;;23.80;51.94;95899.25;5092766;28;20063;-75
2021/07/24 08:07:20;;;;;;;17.00;11.70;;;;;;;24.02;53.82;95908.94;5110522;28;20048;-75
2021/07/24 08:09:48;;;;;;;14.60;10.88;;;;;;;24.58;53.11;95909.38;5110364;28;20498;-75
2021/07/24 08:12:14;;;;;;;19.60;11.95;;;;;;;25.76;48.73;95905.41;5109534;28;20054;-75
2021/07/24 08:14:40;;;;;;;14.55;10.57;;;;;;;26.97;45.79;95893.63;5110591;28;20500;-74
2021/07/24 08:17:08;;;;;;;16.65;9.98;;;;;;;27.91;45.34;95894.81;5110523;28;20704;-75
2021/07/24 08:19:35;;;;;;;12.73;9.63;;;;;;;28.65;43.07;95891.81;5110912;28;20443;-75
2021/07/24 08:22:01;;;;;;;15.43;9.55;;;;;;;29.18;39.43;95880.13;5111184;28;20047;-75
2021/07/24 08:24:27;;;;;;;13.65;9.73;;;;;;;29.48;40.54;95889.94;5109984;28;20054;-74
2021/07/24 08:26:55;;;;;;;14.65;9.80;;;;;;;29.98;39.55;95893.81;5110883;28;20055;-74
2021/07/24 08:29:22;;;;;;;15.02;10.68;;;;;;;30.23;35.48;95899.31;5110118;28;20055;-75
2021/07/24 08:31:48;;;;;;;13.65;10.60;;;;;;;30.23;37.64;95904.16;5110102;28;20051;-75
2021/07/24 08:34:14;;;;;;;13.80;10.30;;;;;;;30.37;37.45;95895.94;5110141;28;20058;-74
2021/07/24 08:36:41;;;;;;;14.40;10.68;;;;;;;30.13;35.72;95900.50;5110369;28;20044;-75
2021/07/24 08:39:07;;;;;;;15.60;10.63;;;;;;;29.10;37.13;95908.41;5109789;28;20149;-73
2021/07/24 08:41:34;;;;;;;15.93;11.07;;;;;;;28.51;40.46;95920.28;5110539;28;20558;-75
2021/07/24 08:44:02;;;;;;;15.98;9.80;;;;;;;28.25;40.63;95906.22;5110428;28;20048;-74
2021/07/24 08:46:28;;;;;;;14.75;10.48;;;;;;;27.93;42.75;95903.53;5109712;28;20052;-74
2021/07/24 08:48:55;;;;;;;21.38;11.15;;;;;;;27.60;44.33;95905.63;5110747;28;20043;-75
2021/07/24 08:51:23;;;;;;;13.15;10.55;;;;;;;27.23;45.96;95897.38;5109878;28;20052;-75
2021/07/24 08:53:50;;;;;;;18.73;11.32;;;;;;;26.67;45.53;95889.13;5110601;28;20055;-74
2021/07/24 08:56:22;;;;;;;21.33;11.90;;;;;;;26.20;48.02;95899.75;5109747;28;20512;-75
2021/07/24 08:58:52;;;;;;;19.40;11.18;;;;;;;25.77;49.62;95904.19;5110361;28;20055;-74
2021/07/24 09:01:22;;;;;;;17.13;11.52;;;;;;;25.48;51.65;95894.78;5109676;28;20097;-75
2021/07/24 09:03:49;;;;;;;17.17;11.82;;;;;;;25.22;52.45;95894.44;5102029;28;20058;-74
2021/07/24 09:06:20;;;;;;;20.38;12.13;;;;;;;25.09;53.58;95899.03;5088710;28;20055;-74
2021/07/24 09:08:49;;;;;;;15.20;11.20;;;;;;;24.98;54.12;95890.06;5107265;28;20744;-75
2021/07/24 09:11:16;;;;;;;18.75;12.30;;;;;;;24.87;53.76;95881.09;5109589;28;20721;-75
2021/07/24 09:13:43;;;;;;;16.33;11.27;;;;;;;24.86;55.80;95876.75;5108848;28;20047;-74
2021/07/24 09:16:09;;;;;;;18.52;12.00;;;;;;;24.83;54.93;95877.56;5108281;28;20040;-74
2021/07/24 09:18:38;;;;;;;17.27;11.40;;;;;;;24.80;55.44;95873.66;5109082;28;20447;-74
2021/07/24 09:21:05;;;;;;;20.60;12.95;;;;;;;24.82;56.03;95878.78;5109210;28;20124;-74
2021/07/24 09:23:35;;;;;;;18.83;11.88;;;;;;;24.83;54.83;95872.00;5109813;28;20043;-74
2021/07/24 09:26:04;;;;;;;16.83;11.40;;;;;;;24.80;53.67;95872.88;5109070;28;20049;-72
2021/07/24 09:28:30;;;;;;;24.88;12.23;;;;;;;24.69;53.75;95859.09;5109938;28;20051;-75
2021/07/24 09:30:57;;;;;;;19.00;11.73;;;;;;;24.66;55.11;95851.59;5109384;28;20044;-75
2021/07/24 09:33:23;;;;;;;17.52;12.05;;;;;;;24.66;54.93;95852.38;5109069;28;20413;-75
2021/07/24 09:35:54;;;;;;;17.42;11.32;;;;;;;24.65;54.93;95839.69;5109212;28;20040;-75
2021/07/24 09:38:28;;;;;;;16.67;12.43;;;;;;;24.65;54.33;95834.09;5108848;28;20051;-75
2021/07/24 09:40:56;;;;;;;17.42;12.02;;;;;;;24.70;55.46;95824.50;5109414;28;20039;-74
2021/07/24 09:43:31;;;;;;;18.08;12.00;;;;;;;24.77;54.67;95812.44;5108652;28;20047;-75
2021/07/24 09:46:11;;;;;;;14.75;11.10;;;;;;;24.94;55.69;95809.34;5109471;28;20047;-74
2021/07/24 09:48:39;;;;;;;15.85;11.55;;;;;;;25.04;53.86;95790.84;5094442;28;20040;-75
2021/07/24 09:51:07;;;;;;;16.80;11.25;;;;;;;25.15;56.20;95788.69;5088573;28;20048;-74
2021/07/24 09:53:41;;;;;;;20.25;11.32;;;;;;;25.22;55.10;95788.56;5088820;28;20044;-75
2021/07/24 09:56:11;;;;;;;17.65;11.30;;;;;;;25.25;55.53;95792.47;5087845;28;20059;-74
2021/07/24 09:58:38;;;;;;;17.95;11.48;;;;;;;25.33;54.92;95804.28;5088856;28;20051;-75
2021/07/24 10:01:06;;;;;;;19.25;12.15;;;;;;;25.33;53.69;95815.44;5088158;28;20048;-74
2021/07/24 10:03:35;;;;;;;18.00;11.68;;;;;;;25.25;51.78;95820.34;5088834;28;20043;-75
2021/07/24 10:06:12;;;;;;;17.38;12.15;;;;;;;25.13;52.13;95827.34;5087786;28;20534;-73
2021/07/24 10:08:40;;;;;;;20.90;11.48;;;;;;;25.05;52.51;95844.56;5104985;28;20051;-75
2021/07/24 10:11:07;;;;;;;16.02;11.88;;;;;;;24.92;52.13;95853.53;5108530;28;20614;-76
2021/07/24 10:13:34;;;;;;;18.05;11.55;;;;;;;24.87;51.96;95856.03;5109036;28;20140;-75
2021/07/24 10:16:01;;;;;;;21.08;12.60;;;;;;;24.80;52.34;95845.03;5108526;28;20054;-75
2021/07/24 10:18:27;;;;;;;20.45;12.75;;;;;;;24.78;53.29;95836.28;5108017;28;20440;-76
2021/07/24 10:20:54;;;;;;;24.23;14.10;;;;;;;24.76;55.78;95847.06;5107971;28;20047;-75
2021/07/24 10:23:23;;;;;;;20.92;13.55;;;;;;;24.87;53.71;95844.88;5107204;28;20051;-74
2021/07/24 10:25:55;;;;;;;21.55;13.57;;;;;;;24.92;53.98;95842.41;5108070;28;20040;-75
2021/07/24 10:28:27;;;;;;;19.27;13.00;;;;;;;25.02;54.49;95842.66;5108145;28;20052;-74
2021/07/24 10:30:56;;;;;;;16.95;11.50;;;;;;;25.29;56.71;95832.22;5108760;28;20657;-76
2021/07/24 10:33:24;;;;;;;18.42;12.35;;;;;;;25.57;52.72;95835.66;5107932;28;20101;-75
2021/07/24 10:35:50;;;;;;;20.25;12.38;;;;;;;25.87;52.70;95831.91;5108266;28;20051;-74
2021/07/24 10:38:32;;;;;;;18.63;12.68;;;;;;;26.10;52.33;95829.03;5107849;28;20417;-75
2021/07/24 10:41:28;;;;;;;17.75;11.70;;;;;;;26.28;51.31;95826.59;5100556;28;20052;-74
2021/07/24 10:43:59;;;;;;;16.90;12.68;;;;;;;26.36;48.34;95823.63;5085645;28;20075;-74
2021/07/24 10:47:07;;;;;;;17.55;12.10;;;;;;;26.49;50.89;95824.56;5108306;28;20104;-74
2021/07/24 10:49:59;;;;;;;21.33;12.50;;;;;;;26.54;48.11;95824.03;5111237;28;20046;-74
2021/07/24 10:52:26;;;;;;;17.27;12.17;;;;;;;26.25;47.13;95813.50;5110992;28;20495;-74
2021/07/24 10:55:14;;;;;;;18.88;11.88;;;;;;;26.21;49.08;95804.44;5111592;28;20288;-75
2021/07/24 10:58:03;;;;;;;20.65;12.40;;;;;;;26.21;50.35;95801.66;5111394;28;20032;-75
2021/07/24 11:00:35;;;;;;;20.30;13.60;;;;;;;26.25;50.51;95799.53;5111160;28;20482;-75
2021/07/24 11:03:02;;;;;;;18.70;11.95;;;;;;;26.44;51.04;95792.38;5111487;28;20089;-74
2021/07/24 11:05:29;;;;;;;19.00;11.98;;;;;;;26.56;51.99;95790.88;5111016;28;20046;-75
2021/07/24 11:07:56;;;;;;;18.48;11.77;;;;;;;26.64;51.01;95789.50;5111373;28;20066;-74
2021/07/24 11:10:24;;;;;;;15.90;12.05;;;;;;;26.56;48.82;95785.28;5109894;28;20136;-74
2021/07/24 11:12:51;;;;;;;19.60;12.68;;;;;;;26.44;50.07;95786.78;5111397;28;20402;-74
2021/07/24 11:15:19;;;;;;;20.58;12.60;;;;;;;26.46;51.38;95794.72;5110532;28;20047;-74
2021/07/24 11:18:06;;;;;;;19.73;12.73;;;;;;;26.43;51.77;95787.22;5110091;28;20084;-75
2021/07/24 11:20:47;;;;;;;17.63;12.35;;;;;;;26.46;49.22;95789.13;5110773;28;20405;-75
2021/07/24 11:23:14;;;;;;;18.13;12.40;;;;;;;26.50;50.49;95784.25;5110305;28;20571;-74